createdAt,value
2017-04-25T00:00:15.053Z,0
2017-04-25T00:00:55.589Z,0
2017-04-25T00:01:36.123Z,0
2017-04-25T00:02:16.666Z,0
2017-04-25T00:02:57.202Z,0
2017-04-25T00:03:37.733Z,0
2017-04-25T00:04:18.266Z,0
2017-04-25T00:04:58.806Z,0
2017-04-25T00:05:39.343Z,0
2017-04-25T00:06:19.885Z,0
2017-04-25T00:07:00.412Z,0
2017-04-25T00:07:40.949Z,0
2017-04-25T00:10:10.415Z,0
2017-04-25T00:10:50.961Z,0
2017-04-25T00:11:31.508Z,0
2017-04-25T00:12:12.045Z,0
2017-04-25T00:12:52.572Z,0
2017-04-25T00:13:33.102Z,0
2017-04-25T00:14:13.645Z,0
2017-04-25T00:14:54.174Z,0
2017-04-25T00:15:34.715Z,0
2017-04-25T00:16:15.253Z,0
2017-04-25T00:16:55.787Z,0
2017-04-25T00:17:36.329Z,0
2017-04-25T00:18:16.865Z,0
2017-04-25T00:18:57.399Z,0
2017-04-25T00:19:37.938Z,0
2017-04-25T00:20:18.468Z,0
2017-04-25T00:20:58.992Z,0
2017-04-25T00:21:39.519Z,0
2017-04-25T00:22:20.052Z,0
2017-04-25T00:23:00.595Z,0
2017-04-25T00:23:41.121Z,0
2017-04-25T00:24:21.668Z,0
2017-04-25T00:25:02.195Z,0
2017-04-25T00:25:42.744Z,0
2017-04-25T00:26:23.271Z,0
2017-04-25T00:27:03.804Z,0
2017-04-25T00:27:44.354Z,0
2017-04-25T00:28:24.895Z,0
2017-04-25T00:29:05.431Z,0
2017-04-25T00:29:45.976Z,0
2017-04-25T00:30:26.516Z,0
2017-04-25T00:31:07.049Z,0
2017-04-25T00:31:47.582Z,0
2017-04-25T00:32:28.120Z,0
2017-04-25T00:33:08.658Z,0
2017-04-25T00:33:49.200Z,0
2017-04-25T00:34:29.730Z,0
2017-04-25T00:35:10.269Z,0
2017-04-25T00:35:50.804Z,0
2017-04-25T00:36:31.353Z,0
2017-04-25T00:37:11.894Z,0
2017-04-25T00:37:52.430Z,0
2017-04-25T00:38:32.988Z,0
2017-04-25T00:39:13.514Z,0
2017-04-25T00:39:54.064Z,0
2017-04-25T00:40:49.335Z,0
2017-04-25T00:41:29.878Z,0
2017-04-25T00:42:10.408Z,0
2017-04-25T00:42:50.941Z,0
2017-04-25T00:43:31.483Z,0
2017-04-25T00:44:12.021Z,0
2017-04-25T00:44:52.569Z,0
2017-04-25T00:45:33.098Z,0
2017-04-25T00:46:13.637Z,0
2017-04-25T00:46:54.177Z,0
2017-04-25T00:47:34.727Z,0
2017-04-25T00:48:15.266Z,0
2017-04-25T00:48:55.798Z,0
2017-04-25T00:49:36.338Z,0
2017-04-25T00:50:16.886Z,0
2017-04-25T00:50:57.420Z,0
2017-04-25T00:51:37.964Z,0
2017-04-25T00:52:18.511Z,0
2017-04-25T00:52:59.045Z,0
2017-04-25T00:53:39.579Z,0
2017-04-25T00:54:20.118Z,0
2017-04-25T00:55:00.654Z,0
2017-04-25T00:55:41.186Z,0
2017-04-25T00:56:21.726Z,0
2017-04-25T00:57:02.273Z,0
2017-04-25T00:57:42.808Z,0
2017-04-25T00:58:23.345Z,0
2017-04-25T00:59:03.870Z,0
2017-04-25T00:59:44.405Z,0
2017-04-25T01:00:24.938Z,0
2017-04-25T01:01:05.479Z,0
2017-04-25T01:01:46.025Z,0
2017-04-25T01:02:26.571Z,0
2017-04-25T01:03:07.101Z,0
2017-04-25T01:03:47.639Z,0
2017-04-25T01:04:28.173Z,0
2017-04-25T01:05:08.724Z,0
2017-04-25T01:05:49.266Z,0
2017-04-25T01:06:29.812Z,0
2017-04-25T01:07:10.349Z,0
2017-04-25T01:07:50.891Z,0
2017-04-25T01:08:31.434Z,0
2017-04-25T01:09:11.985Z,0
2017-04-25T01:09:52.532Z,0
2017-04-25T01:10:33.059Z,0
2017-04-25T01:11:13.598Z,0
2017-04-25T01:11:54.131Z,0
2017-04-25T01:12:34.658Z,0
2017-04-25T01:13:15.201Z,0
2017-04-25T01:13:55.739Z,0
2017-04-25T01:14:36.295Z,0
2017-04-25T01:15:16.842Z,0
2017-04-25T01:15:57.385Z,0
2017-04-25T01:16:37.929Z,0
2017-04-25T01:17:18.466Z,0
2017-04-25T01:17:59.011Z,0
2017-04-25T01:18:39.538Z,0
2017-04-25T01:19:20.074Z,0
2017-04-25T01:20:00.604Z,0
2017-04-25T01:20:41.148Z,0
2017-04-25T01:21:21.693Z,0
2017-04-25T01:22:02.234Z,0
2017-04-25T01:22:42.775Z,0
2017-04-25T01:23:23.320Z,0
2017-04-25T01:24:03.863Z,0
2017-04-25T01:24:44.403Z,0
2017-04-25T01:25:24.929Z,0
2017-04-25T01:26:05.462Z,0
2017-04-25T01:26:46.010Z,0
2017-04-25T01:27:26.561Z,0
2017-04-25T01:28:07.111Z,0
2017-04-25T01:28:47.665Z,0
2017-04-25T01:29:28.207Z,0
2017-04-25T01:30:08.753Z,0
2017-04-25T01:30:49.305Z,0
2017-04-25T01:31:29.849Z,0
2017-04-25T01:32:10.410Z,0
2017-04-25T01:32:57.852Z,0
2017-04-25T01:33:38.382Z,0
2017-04-25T01:34:18.919Z,0
2017-04-25T01:34:59.455Z,0
2017-04-25T01:35:39.990Z,0
2017-04-25T01:36:20.536Z,0
2017-04-25T01:37:01.068Z,0
2017-04-25T01:37:41.600Z,0
2017-04-25T01:38:22.128Z,0
2017-04-25T01:39:02.667Z,0
2017-04-25T01:39:43.210Z,0
2017-04-25T01:40:23.724Z,0
2017-04-25T01:41:04.258Z,0
2017-04-25T01:41:44.787Z,0
2017-04-25T01:42:25.329Z,0
2017-04-25T01:43:05.862Z,0
2017-04-25T01:43:46.394Z,0
2017-04-25T01:44:26.923Z,0
2017-04-25T01:45:07.459Z,0
2017-04-25T01:45:47.977Z,0
2017-04-25T01:46:28.512Z,0
2017-04-25T01:47:09.030Z,0
2017-04-25T01:47:49.563Z,0
2017-04-25T01:48:30.096Z,0
2017-04-25T01:49:10.627Z,0
2017-04-25T01:51:24.894Z,0
2017-04-25T01:52:05.425Z,0
2017-04-25T01:52:45.950Z,0
2017-04-25T01:53:26.483Z,0
2017-04-25T01:54:06.983Z,0
2017-04-25T01:54:47.515Z,0
2017-04-25T01:55:28.046Z,0
2017-04-25T01:56:08.577Z,0
2017-04-25T01:56:49.109Z,0
2017-04-25T01:57:29.644Z,0
2017-04-25T01:58:10.180Z,0
2017-04-25T01:58:50.712Z,0
2017-04-25T01:59:31.248Z,0
2017-04-25T02:00:11.778Z,0
2017-04-25T02:00:52.311Z,0
2017-04-25T02:01:32.842Z,0
2017-04-25T02:02:13.357Z,0
2017-04-25T02:02:53.899Z,0
2017-04-25T02:03:34.430Z,0
2017-04-25T02:04:14.962Z,0
2017-04-25T02:04:55.492Z,0
2017-04-25T02:05:36.030Z,0
2017-04-25T02:06:16.555Z,0
2017-04-25T02:06:57.090Z,0
2017-04-25T02:07:37.620Z,0
2017-04-25T02:08:18.155Z,0
2017-04-25T02:08:58.691Z,0
2017-04-25T02:09:39.223Z,0
2017-04-25T02:10:19.744Z,0
2017-04-25T02:11:00.278Z,0
2017-04-25T02:11:40.824Z,0
2017-04-25T02:12:21.356Z,0
2017-04-25T02:13:01.893Z,0
2017-04-25T02:13:42.426Z,0
2017-04-25T02:14:22.954Z,0
2017-04-25T02:15:03.475Z,0
2017-04-25T02:15:44.006Z,0
2017-04-25T02:16:24.545Z,0
2017-04-25T02:17:05.082Z,0
2017-04-25T02:17:45.629Z,0
2017-04-25T02:18:26.160Z,0
2017-04-25T02:19:06.690Z,0
2017-04-25T02:19:47.227Z,0
2017-04-25T02:20:27.761Z,0
2017-04-25T02:21:08.299Z,0
2017-04-25T02:21:48.834Z,0
2017-04-25T02:22:29.390Z,0
2017-04-25T02:23:09.895Z,0
2017-04-25T02:23:50.432Z,0
2017-04-25T02:24:30.965Z,0
2017-04-25T02:25:11.502Z,0
2017-04-25T02:25:52.035Z,0
2017-04-25T02:26:32.569Z,0
2017-04-25T02:27:13.104Z,0
2017-04-25T02:27:53.639Z,0
2017-04-25T02:28:34.166Z,0
2017-04-25T02:29:14.703Z,0
2017-04-25T02:29:55.239Z,0
2017-04-25T02:30:35.770Z,0
2017-04-25T02:31:16.308Z,0
2017-04-25T02:31:56.843Z,0
2017-04-25T02:32:37.410Z,0
2017-04-25T02:33:17.939Z,0
2017-04-25T02:33:58.472Z,0
2017-04-25T02:34:39.002Z,0
2017-04-25T02:35:19.534Z,0
2017-04-25T02:36:00.053Z,0
2017-04-25T02:36:40.581Z,0
2017-04-25T02:37:21.117Z,0
2017-04-25T02:38:01.645Z,0
2017-04-25T02:38:42.176Z,0
2017-04-25T02:39:22.708Z,0
2017-04-25T02:40:03.229Z,0
2017-04-25T02:40:43.762Z,0
2017-04-25T02:41:24.287Z,0
2017-04-25T02:42:04.827Z,0
2017-04-25T02:42:45.360Z,0
2017-04-25T02:43:25.880Z,0
2017-04-25T02:44:06.417Z,0
2017-04-25T02:44:46.948Z,0
2017-04-25T02:45:27.483Z,0
2017-04-25T02:46:08.012Z,0
2017-04-25T02:46:48.553Z,0
2017-04-25T02:47:29.086Z,0
2017-04-25T02:48:09.621Z,0
2017-04-25T02:48:50.148Z,0
2017-04-25T02:49:30.681Z,0
2017-04-25T02:50:11.213Z,0
2017-04-25T02:50:51.766Z,0
2017-04-25T02:51:32.281Z,0
2017-04-25T02:52:12.821Z,0
2017-04-25T02:52:53.350Z,0
2017-04-25T02:53:33.886Z,0
2017-04-25T02:54:14.417Z,0
2017-04-25T02:54:54.951Z,0
2017-04-25T02:55:35.481Z,0
2017-04-25T02:56:16.023Z,0
2017-04-25T02:56:56.548Z,0
2017-04-25T02:57:37.066Z,0
2017-04-25T02:58:17.596Z,0
2017-04-25T02:58:58.131Z,0
2017-04-25T02:59:38.664Z,0
2017-04-25T03:00:19.236Z,0
2017-04-25T03:00:59.777Z,0
2017-04-25T03:01:40.311Z,0
2017-04-25T03:02:20.842Z,0
2017-04-25T03:03:01.373Z,0
2017-04-25T03:03:41.906Z,0
2017-04-25T03:04:22.442Z,0
2017-04-25T03:05:03.807Z,0
2017-04-25T03:05:45.312Z,0
2017-04-25T03:06:25.311Z,0
2017-04-25T03:07:05.577Z,0
2017-04-25T03:07:47.337Z,0
2017-04-25T03:08:31.309Z,0
2017-04-25T03:09:11.614Z,0
2017-04-25T03:09:52.148Z,0
2017-04-25T03:10:32.680Z,0
2017-04-25T03:11:13.224Z,0
2017-04-25T03:11:53.749Z,0
2017-04-25T03:12:34.281Z,0
2017-04-25T03:13:14.841Z,0
2017-04-25T03:14:09.998Z,0
2017-04-25T03:14:50.523Z,0
2017-04-25T03:15:30.987Z,0
2017-04-25T03:16:11.549Z,0
2017-04-25T03:16:52.069Z,0
2017-04-25T03:17:32.594Z,0
2017-04-25T03:18:13.096Z,0
2017-04-25T03:18:53.614Z,0
2017-04-25T03:19:34.136Z,0
2017-04-25T03:20:14.659Z,0
2017-04-25T03:20:56.314Z,0
2017-04-25T03:21:37.860Z,0
2017-04-25T03:22:17.970Z,0
2017-04-25T03:23:03.316Z,0
2017-04-25T03:23:42.722Z,0
2017-04-25T03:24:23.262Z,0
2017-04-25T03:25:04.443Z,0
2017-04-25T03:25:47.313Z,0
2017-04-25T03:26:28.113Z,0
2017-04-25T03:27:08.632Z,0
2017-04-25T03:27:50.115Z,0
2017-04-25T03:28:30.633Z,0
2017-04-25T03:29:12.603Z,0
2017-04-25T03:29:55.334Z,0
2017-04-25T03:30:36.688Z,0
2017-04-25T03:31:17.243Z,0
2017-04-25T03:31:59.679Z,0
2017-04-25T03:32:41.836Z,0
2017-04-25T03:33:21.415Z,0
2017-04-25T03:34:02.790Z,0
2017-04-25T03:34:44.252Z,0
2017-04-25T03:35:26.817Z,0
2017-04-25T03:36:05.898Z,0
2017-04-25T03:36:47.818Z,0
2017-04-25T03:37:28.400Z,0
2017-04-25T03:38:08.962Z,0
2017-04-25T03:38:49.465Z,0
2017-04-25T03:39:29.986Z,0
2017-04-25T03:40:10.489Z,0
2017-04-25T03:40:51.040Z,0
2017-04-25T03:41:31.813Z,0
2017-04-25T03:42:12.361Z,0
2017-04-25T03:42:52.829Z,0
2017-04-25T03:43:34.337Z,0
2017-04-25T03:44:13.890Z,0
2017-04-25T03:44:54.401Z,0
2017-04-25T03:45:35.835Z,0
2017-04-25T03:46:16.201Z,0
2017-04-25T03:46:57.680Z,0
2017-04-25T03:47:39.132Z,0
2017-04-25T03:48:20.833Z,0
2017-04-25T03:49:00.755Z,0
2017-04-25T03:49:42.870Z,0
2017-04-25T03:50:25.858Z,0
2017-04-25T03:51:06.432Z,0
2017-04-25T03:51:47.834Z,0
2017-04-25T03:52:27.400Z,0
2017-04-25T03:53:15.417Z,0
2017-04-25T03:53:55.916Z,0
2017-04-25T03:54:38.081Z,0
2017-04-25T03:55:18.605Z,0
2017-04-25T03:55:59.134Z,0
2017-04-25T03:56:39.649Z,0
2017-04-25T03:57:20.165Z,0
2017-04-25T03:58:03.318Z,0
2017-04-25T03:58:44.077Z,0
2017-04-25T03:59:24.595Z,0
2017-04-25T04:00:05.116Z,0
2017-04-25T04:00:48.475Z,0
2017-04-25T04:01:29.010Z,0
2017-04-25T04:02:10.484Z,0
2017-04-25T04:02:51.097Z,0
2017-04-25T04:03:31.618Z,0
2017-04-25T04:04:12.150Z,0
2017-04-25T04:04:53.486Z,0
2017-04-25T04:05:35.448Z,0
2017-04-25T04:06:16.960Z,0
2017-04-25T04:07:01.832Z,0
2017-04-25T04:07:43.204Z,0
2017-04-25T04:08:23.757Z,0
2017-04-25T04:09:04.265Z,0
2017-04-25T04:09:44.783Z,4
2017-04-25T04:10:26.826Z,0
2017-04-25T04:11:07.326Z,0
2017-04-25T04:11:46.953Z,4
2017-04-25T04:12:28.341Z,4
2017-04-25T04:13:08.853Z,4
2017-04-25T04:13:50.283Z,4
2017-04-25T04:14:30.804Z,0
2017-04-25T04:15:11.326Z,4
2017-04-25T04:15:51.847Z,4
2017-04-25T04:16:33.335Z,4
2017-04-25T04:17:15.324Z,8
2017-04-25T04:17:55.301Z,8
2017-04-25T04:18:35.804Z,16
2017-04-25T04:19:17.826Z,16
2017-04-25T04:19:57.573Z,12
2017-04-25T04:20:38.827Z,12
2017-04-25T04:21:18.629Z,12
2017-04-25T04:21:59.824Z,16
2017-04-25T04:22:39.674Z,24
2017-04-25T04:23:20.724Z,28
2017-04-25T04:24:01.252Z,36
2017-04-25T04:24:42.058Z,36
2017-04-25T04:25:22.579Z,40
2017-04-25T04:26:03.792Z,32
2017-04-25T04:26:45.087Z,36
2017-04-25T04:27:27.326Z,40
2017-04-25T04:28:06.131Z,44
2017-04-25T04:28:46.649Z,48
2017-04-25T04:29:27.831Z,52
2017-04-25T04:30:07.716Z,60
2017-04-25T04:30:48.236Z,64
2017-04-25T04:31:29.001Z,64
2017-04-25T04:33:46.384Z,68
2017-04-25T04:34:26.297Z,68
2017-04-25T04:35:07.386Z,72
2017-04-25T04:35:48.382Z,72
2017-04-25T04:36:27.861Z,72
2017-04-25T04:37:09.355Z,80
2017-04-25T04:37:49.886Z,84
2017-04-25T04:38:34.143Z,80
2017-04-25T04:39:16.188Z,84
2017-04-25T04:39:57.478Z,88
2017-04-25T04:40:38.067Z,88
2017-04-25T04:41:18.595Z,96
2017-04-25T04:41:59.191Z,116
2017-04-25T04:42:41.388Z,128
2017-04-25T04:43:22.385Z,132
2017-04-25T04:44:03.431Z,132
2017-04-25T04:44:43.909Z,144
2017-04-25T04:45:25.443Z,140
2017-04-25T04:46:06.873Z,160
2017-04-25T04:46:47.833Z,180
2017-04-25T04:47:28.451Z,200
2017-04-25T04:48:10.387Z,208
2017-04-25T04:48:50.465Z,208
2017-04-25T04:49:30.645Z,204
2017-04-25T04:50:11.521Z,200
2017-04-25T04:50:52.910Z,196
2017-04-25T04:51:33.122Z,196
2017-04-25T04:52:13.812Z,192
2017-04-25T04:52:54.688Z,188
2017-04-25T04:53:36.202Z,164
2017-04-25T04:54:16.807Z,156
2017-04-25T04:54:57.459Z,156
2017-04-25T04:55:39.888Z,180
2017-04-25T04:56:19.625Z,208
2017-04-25T04:57:00.987Z,228
2017-04-25T04:57:42.408Z,236
2017-04-25T04:58:23.014Z,260
2017-04-25T04:59:03.672Z,288
2017-04-25T04:59:44.481Z,316
2017-04-25T05:00:26.141Z,340
2017-04-25T05:01:06.724Z,360
2017-04-25T05:01:49.391Z,368
2017-04-25T05:02:30.905Z,372
2017-04-25T05:03:12.281Z,360
2017-04-25T05:03:53.140Z,360
2017-04-25T05:04:35.398Z,376
2017-04-25T05:05:15.386Z,412
2017-04-25T05:05:57.256Z,444
2017-04-25T05:06:38.563Z,460
2017-04-25T05:07:19.072Z,444
2017-04-25T05:08:00.530Z,412
2017-04-25T05:08:41.053Z,384
2017-04-25T05:09:21.564Z,368
2017-04-25T05:10:02.083Z,364
2017-04-25T05:10:42.581Z,372
2017-04-25T05:11:23.891Z,388
2017-04-25T05:12:04.395Z,412
2017-04-25T05:12:46.396Z,436
2017-04-25T05:13:25.963Z,456
2017-04-25T05:14:06.470Z,480
2017-04-25T05:14:48.396Z,500
2017-04-25T05:15:29.031Z,520
2017-04-25T05:16:09.570Z,540
2017-04-25T05:16:50.867Z,572
2017-04-25T05:17:31.410Z,608
2017-04-25T05:18:11.916Z,640
2017-04-25T05:18:52.554Z,668
2017-04-25T05:19:34.505Z,688
2017-04-25T05:20:15.018Z,680
2017-04-25T05:20:57.393Z,676
2017-04-25T05:21:36.797Z,664
2017-04-25T05:22:18.392Z,636
2017-04-25T05:22:57.783Z,616
2017-04-25T05:23:39.197Z,608
2017-04-25T05:24:20.258Z,608
2017-04-25T05:25:00.783Z,624
2017-04-25T05:25:41.300Z,640
2017-04-25T05:26:21.834Z,656
2017-04-25T05:27:02.363Z,684
2017-04-25T05:27:42.905Z,708
2017-04-25T05:28:23.439Z,748
2017-04-25T05:29:03.998Z,768
2017-04-25T05:29:44.499Z,776
2017-04-25T05:30:25.013Z,788
2017-04-25T05:31:05.555Z,808
2017-04-25T05:31:46.088Z,828
2017-04-25T05:32:26.603Z,820
2017-04-25T05:33:07.127Z,824
2017-04-25T05:33:47.659Z,816
2017-04-25T05:34:28.208Z,780
2017-04-25T05:35:08.718Z,744
2017-04-25T05:35:49.219Z,816
2017-04-25T05:36:29.757Z,896
2017-04-25T05:37:10.307Z,912
2017-04-25T05:37:50.832Z,852
2017-04-25T05:38:31.348Z,836
2017-04-25T05:39:11.869Z,820
2017-04-25T05:39:52.401Z,828
2017-04-25T05:40:32.935Z,812
2017-04-25T05:41:13.459Z,864
2017-04-25T05:41:53.983Z,1012
2017-04-25T05:42:34.517Z,1172
2017-04-25T05:43:15.053Z,1252
2017-04-25T05:43:55.575Z,1356
2017-04-25T05:44:36.122Z,1384
2017-04-25T05:45:16.634Z,1436
2017-04-25T05:45:57.161Z,1368
2017-04-25T05:46:37.681Z,1280
2017-04-25T05:47:18.413Z,1256
2017-04-25T05:47:59.118Z,1248
2017-04-25T05:48:39.631Z,1336
2017-04-25T05:49:20.141Z,1448
2017-04-25T05:50:00.665Z,1252
2017-04-25T05:50:41.160Z,1212
2017-04-25T05:51:21.681Z,1108
2017-04-25T05:52:02.194Z,1176
2017-04-25T05:52:42.725Z,1248
2017-04-25T05:53:23.224Z,1236
2017-04-25T05:54:03.732Z,1232
2017-04-25T05:54:44.269Z,1332
2017-04-25T05:55:24.776Z,1476
2017-04-25T05:56:05.290Z,1504
2017-04-25T05:56:45.836Z,1572
2017-04-25T05:57:26.325Z,1672
2017-04-25T05:58:06.855Z,1652
2017-04-25T05:58:47.410Z,1636
2017-04-25T05:59:27.934Z,1652
2017-04-25T06:00:08.460Z,1660
2017-04-25T06:00:48.975Z,1796
2017-04-25T06:01:29.507Z,1836
2017-04-25T06:02:10.031Z,1992
2017-04-25T06:02:50.544Z,2060
2017-04-25T06:03:31.083Z,2112
2017-04-25T06:04:11.680Z,2216
2017-04-25T06:04:52.196Z,2356
2017-04-25T06:05:32.698Z,2448
2017-04-25T06:06:13.228Z,2512
2017-04-25T06:06:53.739Z,2556
2017-04-25T06:07:34.283Z,2564
2017-04-25T06:08:14.824Z,2496
2017-04-25T06:08:55.357Z,2316
2017-04-25T06:09:35.895Z,2320
2017-04-25T06:10:16.485Z,2484
2017-04-25T06:10:57.005Z,2596
2017-04-25T06:11:37.559Z,2644
2017-04-25T06:12:18.068Z,2696
2017-04-25T06:12:58.582Z,2836
2017-04-25T06:13:39.135Z,2524
2017-04-25T06:14:19.759Z,2476
2017-04-25T06:15:00.272Z,2544
2017-04-25T06:15:40.768Z,2888
2017-04-25T06:16:21.307Z,2912
2017-04-25T06:17:01.870Z,3228
2017-04-25T06:17:42.387Z,3448
2017-04-25T06:18:23.027Z,3252
2017-04-25T06:19:03.596Z,2964
2017-04-25T06:19:44.123Z,2868
2017-04-25T06:20:24.636Z,2524
2017-04-25T06:21:05.141Z,2484
2017-04-25T06:21:45.672Z,2704
2017-04-25T06:22:26.201Z,3052
2017-04-25T06:23:06.737Z,3188
2017-04-25T06:23:47.218Z,3508
2017-04-25T06:24:27.733Z,3748
2017-04-25T06:25:08.280Z,3880
2017-04-25T06:25:48.809Z,3912
2017-04-25T06:26:29.330Z,3872
2017-04-25T06:27:09.865Z,3812
2017-04-25T06:27:50.405Z,3568
2017-04-25T06:28:30.919Z,3180
2017-04-25T06:29:11.441Z,3036
2017-04-25T06:29:51.967Z,2888
2017-04-25T06:30:32.488Z,2620
2017-04-25T06:31:13.025Z,2328
2017-04-25T06:31:53.546Z,2580
2017-04-25T06:32:34.091Z,2600
2017-04-25T06:33:14.625Z,2068
2017-04-25T06:33:55.143Z,1448
2017-04-25T06:34:35.671Z,1176
2017-04-25T06:35:16.204Z,1232
2017-04-25T06:35:56.730Z,1344
2017-04-25T06:36:37.259Z,1524
2017-04-25T06:37:17.798Z,1704
2017-04-25T06:37:58.301Z,1740
2017-04-25T06:38:38.858Z,2188
2017-04-25T06:39:19.425Z,2404
2017-04-25T06:39:59.990Z,2188
2017-04-25T06:40:40.563Z,2016
2017-04-25T06:41:21.097Z,1852
2017-04-25T06:42:01.621Z,1776
2017-04-25T06:42:42.136Z,1544
2017-04-25T06:43:22.665Z,1348
2017-04-25T06:44:03.186Z,1116
2017-04-25T06:44:43.717Z,1212
2017-04-25T06:45:24.283Z,1584
2017-04-25T06:46:04.792Z,1756
2017-04-25T06:46:45.321Z,1684
2017-04-25T06:47:25.843Z,1464
2017-04-25T06:48:06.362Z,1312
2017-04-25T06:48:46.913Z,1452
2017-04-25T06:49:27.447Z,1868
2017-04-25T06:50:07.967Z,1848
2017-04-25T06:50:48.490Z,1520
2017-04-25T06:51:29.025Z,1452
2017-04-25T06:52:09.542Z,1444
2017-04-25T06:52:50.053Z,1500
2017-04-25T06:53:30.576Z,1668
2017-04-25T06:54:11.108Z,1504
2017-04-25T06:54:51.639Z,1636
2017-04-25T06:55:32.166Z,1480
2017-04-25T06:56:12.681Z,1060
2017-04-25T06:56:53.229Z,768
2017-04-25T06:57:33.737Z,564
2017-04-25T06:58:14.249Z,520
2017-04-25T06:58:54.770Z,612
2017-04-25T06:59:35.276Z,704
2017-04-25T07:00:15.781Z,784
2017-04-25T07:00:56.321Z,1072
2017-04-25T07:01:36.849Z,1160
2017-04-25T07:02:17.367Z,1192
2017-04-25T07:02:57.870Z,1164
2017-04-25T07:03:38.416Z,1232
2017-04-25T07:04:18.952Z,1228
2017-04-25T07:04:59.489Z,1184
2017-04-25T07:05:40.018Z,1192
2017-04-25T07:06:20.564Z,1216
2017-04-25T07:07:01.096Z,1084
2017-04-25T07:07:41.620Z,912
2017-04-25T07:08:22.144Z,864
2017-04-25T07:09:02.667Z,896
2017-04-25T07:09:43.182Z,872
2017-04-25T07:10:23.725Z,848
2017-04-25T07:11:04.227Z,816
2017-04-25T07:11:44.751Z,804
2017-04-25T07:12:25.257Z,824
2017-04-25T07:13:05.789Z,892
2017-04-25T07:13:46.254Z,988
2017-04-25T07:14:26.823Z,1092
2017-04-25T07:15:07.400Z,1192
2017-04-25T07:15:47.871Z,1300
2017-04-25T07:16:28.354Z,1448
2017-04-25T07:17:08.921Z,1620
2017-04-25T07:17:49.388Z,1744
2017-04-25T07:18:29.892Z,1828
2017-04-25T07:19:10.403Z,2100
2017-04-25T07:19:50.934Z,2248
2017-04-25T07:20:31.466Z,2244
2017-04-25T07:21:11.991Z,2116
2017-04-25T07:21:52.491Z,1960
2017-04-25T07:22:33.087Z,1892
2017-04-25T07:23:13.601Z,1700
2017-04-25T07:23:54.144Z,1548
2017-04-25T07:24:34.717Z,1480
2017-04-25T07:25:15.236Z,1464
2017-04-25T07:25:55.755Z,1456
2017-04-25T07:26:36.296Z,1464
2017-04-25T07:27:16.813Z,1436
2017-04-25T07:27:57.328Z,1368
2017-04-25T07:28:37.859Z,1200
2017-04-25T07:29:18.367Z,1056
2017-04-25T07:29:58.903Z,1032
2017-04-25T07:30:39.435Z,1004
2017-04-25T07:31:19.973Z,908
2017-04-25T07:32:00.513Z,896
2017-04-25T07:32:41.053Z,972
2017-04-25T07:33:21.587Z,1080
2017-04-25T07:34:02.128Z,1264
2017-04-25T07:34:42.660Z,1720
2017-04-25T07:35:23.196Z,2216
2017-04-25T07:36:03.723Z,3060
2017-04-25T07:36:44.235Z,3644
2017-04-25T07:37:24.768Z,3568
2017-04-25T07:38:05.276Z,3508
2017-04-25T07:38:45.818Z,3752
2017-04-25T07:39:26.368Z,4880
2017-04-25T07:40:06.901Z,5560
2017-04-25T07:40:47.438Z,5172
2017-04-25T07:41:27.985Z,5288
2017-04-25T07:42:08.526Z,5708
2017-04-25T07:42:49.039Z,5712
2017-04-25T07:43:29.556Z,5700
2017-04-25T07:44:10.085Z,5316
2017-04-25T07:44:50.603Z,5204
2017-04-25T07:45:31.134Z,5524
2017-04-25T07:46:11.647Z,4972
2017-04-25T07:46:52.165Z,4724
2017-04-25T07:47:32.674Z,4504
2017-04-25T07:48:13.218Z,4312
2017-04-25T07:48:53.716Z,4268
2017-04-25T07:49:34.234Z,4400
2017-04-25T07:50:14.758Z,3924
2017-04-25T07:50:55.330Z,4492
2017-04-25T07:51:35.857Z,4872
2017-04-25T07:52:16.387Z,5168
2017-04-25T07:52:56.912Z,5244
2017-04-25T07:53:37.435Z,5240
2017-04-25T07:54:18.007Z,4992
2017-04-25T07:54:58.568Z,4976
2017-04-25T07:55:39.091Z,5332
2017-04-25T07:56:19.605Z,5608
2017-04-25T07:57:00.120Z,5780
2017-04-25T07:57:40.636Z,6172
2017-04-25T07:58:21.165Z,6692
2017-04-25T07:59:01.700Z,7124
2017-04-25T07:59:42.226Z,7520
2017-04-25T08:00:22.740Z,7528
2017-04-25T08:01:03.249Z,7224
2017-04-25T08:01:43.769Z,7096
2017-04-25T08:02:24.294Z,7164
2017-04-25T08:03:04.818Z,7176
2017-04-25T08:03:45.355Z,7120
2017-04-25T08:04:25.919Z,6868
2017-04-25T08:05:06.419Z,6948
2017-04-25T08:05:46.964Z,6752
2017-04-25T08:06:27.489Z,6656
2017-04-25T08:07:07.998Z,6876
2017-04-25T08:07:48.541Z,6872
2017-04-25T08:08:29.085Z,6860
2017-04-25T08:09:09.575Z,6792
2017-04-25T08:09:50.105Z,6904
2017-04-25T08:10:30.649Z,7124
2017-04-25T08:11:11.162Z,7592
2017-04-25T08:11:51.696Z,8236
2017-04-25T08:12:32.215Z,8892
2017-04-25T08:13:12.756Z,9364
2017-04-25T08:13:53.301Z,9112
2017-04-25T08:14:33.852Z,9144
2017-04-25T08:15:14.360Z,9332
2017-04-25T08:15:54.868Z,9464
2017-04-25T08:16:35.397Z,9516
2017-04-25T08:17:15.959Z,9476
2017-04-25T08:17:56.463Z,9160
2017-04-25T08:18:37.013Z,8756
2017-04-25T08:19:17.561Z,8588
2017-04-25T08:19:58.128Z,8864
2017-04-25T08:20:38.661Z,9368
2017-04-25T08:21:19.208Z,9960
2017-04-25T08:21:59.734Z,10452
2017-04-25T08:22:40.254Z,10924
2017-04-25T08:23:20.785Z,11228
2017-04-25T08:24:01.272Z,11392
2017-04-25T08:24:41.813Z,11780
2017-04-25T08:25:22.346Z,11900
2017-04-25T08:26:02.888Z,11664
2017-04-25T08:26:43.410Z,11456
2017-04-25T08:27:23.958Z,11828
2017-04-25T08:28:04.483Z,11732
2017-04-25T08:28:44.993Z,12056
2017-04-25T08:29:25.511Z,12640
2017-04-25T08:30:06.057Z,12940
2017-04-25T08:30:46.592Z,13460
2017-04-25T08:31:27.127Z,13132
2017-04-25T08:32:07.662Z,11836
2017-04-25T08:32:48.195Z,11472
2017-04-25T08:33:28.713Z,10928
2017-04-25T08:34:09.237Z,11580
2017-04-25T08:34:49.760Z,11684
2017-04-25T08:35:30.315Z,12636
2017-04-25T08:36:10.852Z,12028
2017-04-25T08:36:51.337Z,12504
2017-04-25T08:37:31.876Z,11568
2017-04-25T08:38:12.394Z,10432
2017-04-25T08:38:52.928Z,9680
2017-04-25T08:39:33.464Z,12100
2017-04-25T08:40:13.990Z,11568
2017-04-25T08:40:54.526Z,10608
2017-04-25T08:41:35.046Z,11228
2017-04-25T08:42:15.597Z,10040
2017-04-25T08:42:56.122Z,11712
2017-04-25T08:43:36.641Z,9716
2017-04-25T08:44:17.186Z,6980
2017-04-25T08:44:57.718Z,5424
2017-04-25T08:45:38.251Z,5728
2017-04-25T08:46:18.787Z,8316
2017-04-25T08:46:59.326Z,7432
2017-04-25T08:47:39.845Z,6224
2017-04-25T08:48:20.379Z,5184
2017-04-25T08:49:00.898Z,5396
2017-04-25T08:49:41.422Z,5568
2017-04-25T08:50:21.943Z,7108
2017-04-25T08:51:02.477Z,8076
2017-04-25T08:51:43.017Z,18368
2017-04-25T08:52:23.532Z,7948
2017-04-25T08:53:04.033Z,9256
2017-04-25T08:53:44.586Z,21824
2017-04-25T08:54:25.112Z,8428
2017-04-25T08:55:05.669Z,10564
2017-04-25T08:55:46.186Z,29760
2017-04-25T08:56:26.713Z,23744
2017-04-25T08:57:07.231Z,17280
2017-04-25T08:57:47.758Z,11852
2017-04-25T08:58:28.283Z,6608
2017-04-25T08:59:08.802Z,6108
2017-04-25T08:59:49.314Z,5988
2017-04-25T09:00:29.867Z,5540
2017-04-25T09:01:10.402Z,4528
2017-04-25T09:01:50.939Z,5500
2017-04-25T09:02:31.471Z,7640
2017-04-25T09:03:12.013Z,10380
2017-04-25T09:03:52.545Z,16020
2017-04-25T09:04:33.082Z,12224
2017-04-25T09:05:13.603Z,22208
2017-04-25T09:05:54.124Z,9520
2017-04-25T09:06:34.657Z,8516
2017-04-25T09:07:15.205Z,48672
2017-04-25T09:07:55.755Z,40352
2017-04-25T09:08:36.293Z,36672
2017-04-25T09:09:16.845Z,19712
2017-04-25T09:09:57.392Z,12268
2017-04-25T09:10:37.944Z,11200
2017-04-25T09:11:18.479Z,11172
2017-04-25T09:11:59.002Z,11724
2017-04-25T09:12:39.534Z,12208
2017-04-25T09:13:20.048Z,12892
2017-04-25T09:14:00.592Z,13044
2017-04-25T09:14:41.212Z,14012
2017-04-25T09:15:21.750Z,16348
2017-04-25T09:16:02.255Z,25984
2017-04-25T09:16:42.794Z,43264
2017-04-25T09:17:23.346Z,59520
2017-04-25T09:18:03.884Z,62912
2017-04-25T09:18:44.468Z,62752
2017-04-25T09:19:25.001Z,68480
2017-04-25T09:20:05.554Z,63104
2017-04-25T09:20:46.106Z,63904
2017-04-25T09:21:26.650Z,60384
2017-04-25T09:22:07.190Z,68672
2017-04-25T09:22:47.732Z,57088
2017-04-25T09:23:28.267Z,73568
2017-04-25T09:24:08.842Z,65184
2017-04-25T09:24:49.372Z,55424
2017-04-25T09:25:29.935Z,61536
2017-04-25T09:26:10.467Z,76128
2017-04-25T09:26:51.020Z,50400
2017-04-25T09:27:31.551Z,62688
2017-04-25T09:28:12.075Z,45696
2017-04-25T09:28:52.628Z,11160
2017-04-25T09:29:33.167Z,12208
2017-04-25T09:30:13.704Z,15948
2017-04-25T09:30:54.226Z,40064
2017-04-25T09:31:34.752Z,34976
2017-04-25T09:32:15.273Z,20640
2017-04-25T09:32:55.821Z,18528
2017-04-25T09:33:36.371Z,14684